createdAt,value
2023-03-05T00:01:14.672Z,4.30
2023-03-05T00:04:16.300Z,4.40
2023-03-05T00:07:17.904Z,4.40
2023-03-05T00:10:21.185Z,4.40
2023-03-05T00:13:22.747Z,4.40
2023-03-05T00:16:26.852Z,4.40
2023-03-05T00:19:28.532Z,4.40
2023-03-05T00:22:30.240Z,4.40
2023-03-05T00:25:31.835Z,4.40
2023-03-05T00:28:33.568Z,4.40
2023-03-05T00:31:36.783Z,4.40
2023-03-05T00:34:38.388Z,4.50
2023-03-05T00:37:40.000Z,4.40
2023-03-05T00:40:41.887Z,4.40
2023-03-05T00:43:43.605Z,4.40
2023-03-05T00:46:45.360Z,4.40
2023-03-05T00:49:46.974Z,4.30
2023-03-05T00:52:48.669Z,4.30
2023-03-05T00:55:50.239Z,4.30
2023-03-05T00:58:53.252Z,4.30
2023-03-05T01:01:54.923Z,4.30
2023-03-05T01:04:56.579Z,4.30
2023-03-05T01:07:58.422Z,4.30
2023-03-05T01:11:00.100Z,4.30
2023-03-05T01:14:01.793Z,4.30
2023-03-05T01:17:03.971Z,4.30
2023-03-05T01:20:06.339Z,4.30
2023-03-05T01:23:08.051Z,4.30
2023-03-05T01:26:09.755Z,4.40
2023-03-05T01:29:11.443Z,4.30
2023-03-05T01:32:13.253Z,4.30
2023-03-05T01:35:20.734Z,4.40
2023-03-05T01:38:22.462Z,4.30
2023-03-05T01:41:24.107Z,4.30
2023-03-05T01:44:29.224Z,4.30
2023-03-05T01:47:30.808Z,4.40
2023-03-05T01:50:32.961Z,4.40
2023-03-05T01:53:34.658Z,4.30
2023-03-05T01:56:38.024Z,4.40
2023-03-05T01:59:43.014Z,4.40
2023-03-05T02:02:49.152Z,4.30
2023-03-05T02:05:50.722Z,4.30
2023-03-05T02:08:52.327Z,4.30
2023-03-05T02:11:54.562Z,4.30
2023-03-05T02:14:59.261Z,4.20
2023-03-05T02:18:01.326Z,4.20
2023-03-05T02:21:07.270Z,4.10
2023-03-05T02:24:31.330Z,4.10
2023-03-05T02:27:35.104Z,4.10
2023-03-05T02:30:37.331Z,4.10
2023-03-05T02:33:38.930Z,4.10
2023-03-05T02:36:40.577Z,4.10
2023-03-05T02:39:42.166Z,4.10
2023-03-05T02:42:44.186Z,4.00
2023-03-05T02:45:45.822Z,4.00
2023-03-05T02:48:47.458Z,4.00
2023-03-05T02:51:49.056Z,4.10
2023-03-05T02:54:50.962Z,4.10
2023-03-05T02:57:52.557Z,4.10
2023-03-05T03:00:54.285Z,4.10
2023-03-05T03:03:56.332Z,4.10
2023-03-05T03:06:57.984Z,4.10
2023-03-05T03:09:59.582Z,4.10
2023-03-05T03:13:01.164Z,4.10
2023-03-05T03:16:06.254Z,4.10
2023-03-05T03:19:07.822Z,4.10
2023-03-05T03:22:11.435Z,4.10
2023-03-05T03:25:15.701Z,4.10
2023-03-05T03:28:17.396Z,4.10
2023-03-05T03:31:19.086Z,4.10
2023-03-05T03:34:21.422Z,4.10
2023-03-05T03:37:23.106Z,4.10
2023-03-05T03:40:24.727Z,4.10
2023-03-05T03:43:26.411Z,4.20
2023-03-05T03:46:28.127Z,4.20
2023-03-05T03:49:29.770Z,4.30
2023-03-05T03:52:31.366Z,4.30
2023-03-05T03:55:33.745Z,4.40
2023-03-05T03:58:35.702Z,4.50
2023-03-05T04:01:37.531Z,4.40
2023-03-05T04:04:39.160Z,4.40
2023-03-05T04:07:40.949Z,4.40
2023-03-05T04:10:42.625Z,4.50
2023-03-05T04:13:44.230Z,4.50
2023-03-05T04:16:45.825Z,4.50
2023-03-05T04:19:47.394Z,4.40
2023-03-05T04:22:49.087Z,4.50
2023-03-05T04:25:50.854Z,4.50
2023-03-05T04:28:52.810Z,4.50
2023-03-05T04:31:54.449Z,4.50
2023-03-05T04:34:57.456Z,4.50
2023-03-05T04:37:59.091Z,4.50
2023-03-05T04:41:00.668Z,4.50
2023-03-05T04:44:02.399Z,4.50
2023-03-05T04:47:04.072Z,4.50
2023-03-05T04:50:07.063Z,4.50
2023-03-05T04:53:08.647Z,4.40
2023-03-05T04:56:10.247Z,4.40
2023-03-05T04:59:11.859Z,4.40
2023-03-05T05:02:13.548Z,4.30
2023-03-05T05:05:20.463Z,4.30
2023-03-05T05:08:22.707Z,4.30
2023-03-05T05:11:24.352Z,4.40
2023-03-05T05:14:25.940Z,4.40
2023-03-05T05:17:30.759Z,4.40
2023-03-05T05:20:32.329Z,4.50
2023-03-05T05:23:33.929Z,4.40
2023-03-05T05:26:35.628Z,4.40
2023-03-05T05:29:37.547Z,4.40
2023-03-05T05:32:39.144Z,4.40
2023-03-05T05:35:40.828Z,4.30
2023-03-05T05:38:42.708Z,4.30
2023-03-05T05:41:44.470Z,4.30
2023-03-05T05:44:47.480Z,4.30
2023-03-05T05:47:49.070Z,4.30
2023-03-05T05:50:50.647Z,4.30
2023-03-05T05:53:52.773Z,4.30
2023-03-05T05:56:54.387Z,4.40
2023-03-05T05:59:56.026Z,4.40
2023-03-05T06:02:57.734Z,4.40
2023-03-05T06:05:59.347Z,4.40
2023-03-05T06:09:01.467Z,4.40
2023-03-05T06:12:03.889Z,4.40
2023-03-05T06:15:06.124Z,4.40
2023-03-05T06:18:07.795Z,4.30
2023-03-05T06:21:12.958Z,4.30
2023-03-05T06:24:14.568Z,4.20
2023-03-05T06:27:16.355Z,4.20
2023-03-05T06:30:18.175Z,4.10
2023-03-05T06:33:20.451Z,4.10
2023-03-05T06:36:24.193Z,4.20
2023-03-05T06:39:25.754Z,4.20
2023-03-05T06:42:27.307Z,4.20
2023-03-05T06:45:28.889Z,4.20
2023-03-05T06:48:30.620Z,4.10
2023-03-05T06:51:38.003Z,4.10
2023-03-05T06:54:40.185Z,4.20
2023-03-05T06:57:41.859Z,4.20
2023-03-05T07:00:44.503Z,4.20
2023-03-05T07:03:52.223Z,4.20
2023-03-05T07:06:54.196Z,4.30
2023-03-05T07:09:55.857Z,4.30
2023-03-05T07:12:57.588Z,4.20
2023-03-05T07:15:59.474Z,4.20
2023-03-05T07:19:04.050Z,4.20
2023-03-05T07:22:06.976Z,4.20
2023-03-05T07:25:09.097Z,4.20
2023-03-05T07:28:10.860Z,4.20
2023-03-05T07:31:16.078Z,4.30
2023-03-05T07:34:18.197Z,4.30
2023-03-05T07:37:19.764Z,4.40
2023-03-05T07:40:22.385Z,4.40
2023-03-05T07:43:24.041Z,4.40
2023-03-05T07:46:28.939Z,4.50
2023-03-05T07:49:30.667Z,4.50
2023-03-05T07:52:32.278Z,4.60
2023-03-05T07:55:33.865Z,4.60
2023-03-05T07:58:35.614Z,4.60
2023-03-05T08:01:37.868Z,4.70
2023-03-05T08:04:40.242Z,4.80
2023-03-05T08:07:42.158Z,4.70
2023-03-05T08:10:43.740Z,4.80
2023-03-05T08:13:45.569Z,4.90
2023-03-05T08:16:48.438Z,5.00
2023-03-05T08:19:50.101Z,5.10
2023-03-05T08:22:51.869Z,5.20
2023-03-05T08:25:53.619Z,5.10
2023-03-05T08:28:56.200Z,5.10
2023-03-05T08:31:58.034Z,5.10
2023-03-05T08:34:59.686Z,5.20
2023-03-05T08:38:01.248Z,5.20
2023-03-05T08:41:03.713Z,5.20
2023-03-05T08:44:05.382Z,5.20
2023-03-05T08:47:07.177Z,5.20
2023-03-05T08:50:09.544Z,5.20
2023-03-05T08:53:11.539Z,5.20
2023-03-05T08:56:14.049Z,5.30
2023-03-05T08:59:15.830Z,5.20
2023-03-05T09:02:17.436Z,5.20
2023-03-05T09:05:19.486Z,5.10
2023-03-05T09:08:21.601Z,5.20
2023-03-05T09:11:23.435Z,5.20
2023-03-05T09:14:25.100Z,5.10
2023-03-05T09:17:26.687Z,5.00
2023-03-05T09:20:28.785Z,5.00
2023-03-05T09:23:30.366Z,5.10
2023-03-05T09:26:32.053Z,5.10
2023-03-05T09:29:33.683Z,5.10
2023-03-05T09:32:35.370Z,5.10
2023-03-05T09:35:37.445Z,5.20
2023-03-05T09:38:40.738Z,5.40
2023-03-05T09:42:15.116Z,5.50
2023-03-05T09:45:16.658Z,5.70
2023-03-05T09:48:26.026Z,5.80
2023-03-05T09:51:31.335Z,5.70
2023-03-05T09:54:39.645Z,5.60
2023-03-05T09:57:51.913Z,5.70
2023-03-05T10:01:15.369Z,5.80
2023-03-05T10:04:38.502Z,5.70
2023-03-05T10:07:43.594Z,5.90
2023-03-05T10:10:51.054Z,5.80
2023-03-05T10:13:52.797Z,5.80
2023-03-05T10:17:12.303Z,5.80
2023-03-05T10:20:28.999Z,5.80
2023-03-05T10:24:00.597Z,5.80
2023-03-05T10:27:14.079Z,5.70
2023-03-05T10:30:49.023Z,5.70
2023-03-05T10:34:12.457Z,5.80
2023-03-05T10:37:22.439Z,5.70
2023-03-05T10:40:40.717Z,5.60
2023-03-05T10:44:03.573Z,5.60
2023-03-05T10:47:36.824Z,5.70
2023-03-05T10:50:44.565Z,5.90
2023-03-05T10:53:58.853Z,5.90
2023-03-05T10:57:18.342Z,5.90
2023-03-05T11:00:25.316Z,5.90
2023-03-05T11:03:45.186Z,5.80
2023-03-05T11:06:46.749Z,5.80
2023-03-05T11:10:00.600Z,5.90
2023-03-05T11:13:24.821Z,5.90
2023-03-05T11:16:32.578Z,6.10
2023-03-05T11:19:34.531Z,6.10
2023-03-05T11:22:36.305Z,6.10
2023-03-05T11:26:10.145Z,6.10
2023-03-05T11:29:19.404Z,6.00
2023-03-05T11:32:24.486Z,6.20
2023-03-05T11:35:32.220Z,6.50
2023-03-05T11:38:35.015Z,6.50
2023-03-05T11:41:44.811Z,6.40
2023-03-05T11:44:53.550Z,6.60
2023-03-05T11:48:01.536Z,6.60
2023-03-05T11:51:17.805Z,6.50
2023-03-05T11:54:26.985Z,6.40
2023-03-05T11:57:35.127Z,6.40
2023-03-05T12:00:44.301Z,6.40
2023-03-05T12:03:47.093Z,6.50
2023-03-05T12:06:50.538Z,6.40
2023-03-05T12:09:54.630Z,6.20
2023-03-05T12:13:15.539Z,6.00
2023-03-05T12:16:27.327Z,5.90
2023-03-05T12:20:01.333Z,6.10
2023-03-05T12:23:03.203Z,6.30
2023-03-05T12:26:05.059Z,6.50
2023-03-05T12:29:29.130Z,6.60
2023-03-05T12:32:31.670Z,6.70
2023-03-05T12:35:36.901Z,6.70
2023-03-05T12:38:39.251Z,6.80
2023-03-05T12:41:40.942Z,6.50
2023-03-05T12:44:42.660Z,6.60
2023-03-05T12:47:46.035Z,6.50
2023-03-05T12:50:48.267Z,6.60
2023-03-05T12:53:51.742Z,6.70
2023-03-05T12:56:56.237Z,6.90
2023-03-05T13:00:21.322Z,7.10
2023-03-05T13:03:30.326Z,7.00
2023-03-05T13:06:34.307Z,6.80
2023-03-05T13:09:36.415Z,6.70
2023-03-05T13:12:38.721Z,6.80
2023-03-05T13:15:40.364Z,6.70
2023-03-05T13:18:42.393Z,6.70
2023-03-05T13:21:44.197Z,6.50
2023-03-05T13:24:46.915Z,6.30
2023-03-05T13:27:48.751Z,6.30
2023-03-05T13:30:56.419Z,6.30
2023-03-05T13:34:32.018Z,6.20
2023-03-05T13:37:37.973Z,6.30
2023-03-05T13:40:41.318Z,6.30
2023-03-05T13:43:54.916Z,6.30
2023-03-05T13:47:17.961Z,6.20
2023-03-05T13:50:29.162Z,6.20
2023-03-05T13:53:31.678Z,6.30
2023-03-05T13:56:33.261Z,6.30
2023-03-05T13:59:38.719Z,6.40
2023-03-05T14:02:44.160Z,6.50
2023-03-05T14:05:45.879Z,6.50
2023-03-05T14:08:52.903Z,6.50
2023-03-05T14:12:01.543Z,6.60
2023-03-05T14:15:07.210Z,6.60
2023-03-05T14:18:11.876Z,6.60
2023-03-05T14:21:14.183Z,6.50
2023-03-05T14:24:26.560Z,6.60
2023-03-05T14:27:35.622Z,6.60
2023-03-05T14:30:37.251Z,6.60
2023-03-05T14:33:40.608Z,6.70
2023-03-05T14:36:48.702Z,6.60
2023-03-05T14:39:56.397Z,6.60
2023-03-05T14:43:00.717Z,6.50
2023-03-05T14:46:02.345Z,6.50
2023-03-05T14:49:04.011Z,6.30
2023-03-05T14:52:06.604Z,6.20
2023-03-05T14:55:14.845Z,6.20
2023-03-05T14:58:22.541Z,6.10
2023-03-05T15:01:25.254Z,6.20
2023-03-05T15:04:26.952Z,6.20
2023-03-05T15:07:31.409Z,6.20
2023-03-05T15:10:32.991Z,6.10
2023-03-05T15:13:36.414Z,6.00
2023-03-05T15:16:41.648Z,5.90
2023-03-05T15:19:43.457Z,5.90
2023-03-05T15:22:45.309Z,6.00
2023-03-05T15:25:47.342Z,5.90
2023-03-05T15:28:49.829Z,5.80
2023-03-05T15:31:53.265Z,5.80
2023-03-05T15:34:55.344Z,5.80
2023-03-05T15:37:57.973Z,5.70
2023-03-05T15:41:01.944Z,5.70
2023-03-05T15:44:03.764Z,5.60
2023-03-05T15:47:05.617Z,5.60
2023-03-05T15:50:08.514Z,5.60
2023-03-05T15:53:12.822Z,5.50
2023-03-05T15:56:16.481Z,5.50
2023-03-05T15:59:18.820Z,5.50
2023-03-05T16:02:21.081Z,5.50
2023-03-05T16:05:23.335Z,5.40
2023-03-05T16:08:24.946Z,5.40
2023-03-05T16:11:27.908Z,5.40
2023-03-05T16:14:31.922Z,5.40
2023-03-05T16:17:33.791Z,5.40
2023-03-05T16:20:36.233Z,5.40
2023-03-05T16:23:38.126Z,5.40
2023-03-05T16:26:41.071Z,5.50
2023-03-05T16:29:43.212Z,5.50
2023-03-05T16:32:44.832Z,5.50
2023-03-05T16:35:46.439Z,5.50
2023-03-05T16:38:50.377Z,5.50
2023-03-05T16:41:52.568Z,5.50
2023-03-05T16:44:54.572Z,5.50
2023-03-05T16:47:57.025Z,5.50
2023-03-05T16:51:00.194Z,5.50
2023-03-05T16:54:01.904Z,5.40
2023-03-05T16:57:03.740Z,5.40
2023-03-05T17:00:06.630Z,5.40
2023-03-05T17:03:08.460Z,5.40
2023-03-05T17:06:14.966Z,5.50
2023-03-05T17:09:19.208Z,5.40
2023-03-05T17:12:22.018Z,5.50
2023-03-05T17:15:24.527Z,5.40
2023-03-05T17:18:26.127Z,5.40
2023-03-05T17:21:27.820Z,5.40
2023-03-05T17:24:30.372Z,5.40
2023-03-05T17:27:31.977Z,5.30
2023-03-05T17:30:36.435Z,5.30
2023-03-05T17:33:38.532Z,5.20
2023-03-05T17:36:40.183Z,5.20
2023-03-05T17:39:41.786Z,5.20
2023-03-05T17:42:43.375Z,5.20
2023-03-05T17:45:45.510Z,5.20
2023-03-05T17:48:47.222Z,5.20
2023-03-05T17:51:48.939Z,5.20
2023-03-05T17:54:52.894Z,5.20
2023-03-05T17:57:54.642Z,5.20
2023-03-05T18:00:56.242Z,5.30
2023-03-05T18:03:58.019Z,5.20
2023-03-05T18:07:01.645Z,5.20
2023-03-05T18:10:04.611Z,5.20
2023-03-05T18:13:06.254Z,5.20
2023-03-05T18:16:08.081Z,5.20
2023-03-05T18:19:10.679Z,5.10
2023-03-05T18:22:12.339Z,5.10
2023-03-05T18:25:14.031Z,5.10
2023-03-05T18:28:16.071Z,5.10
2023-03-05T18:31:17.881Z,5.10
2023-03-05T18:34:20.882Z,5.00
2023-03-05T18:37:22.478Z,5.00
2023-03-05T18:40:26.643Z,5.00
2023-03-05T18:43:28.295Z,5.00
2023-03-05T18:46:32.160Z,5.00
2023-03-05T18:49:33.792Z,5.00
2023-03-05T18:52:35.569Z,5.00
2023-03-05T18:55:37.137Z,5.00
2023-03-05T18:58:42.798Z,5.00
2023-03-05T19:01:44.473Z,5.00
2023-03-05T19:04:46.191Z,5.00
2023-03-05T19:07:48.185Z,4.90
2023-03-05T19:10:49.847Z,4.90
2023-03-05T19:13:52.072Z,4.90
2023-03-05T19:16:53.632Z,4.90
2023-03-05T19:19:58.711Z,4.90
2023-03-05T19:23:00.287Z,4.90
2023-03-05T19:26:03.226Z,4.90
2023-03-05T19:29:06.352Z,4.90
2023-03-05T19:32:11.763Z,4.90
2023-03-05T19:35:17.522Z,4.90
2023-03-05T19:38:19.262Z,4.80
2023-03-05T19:41:21.617Z,4.80
2023-03-05T19:44:23.425Z,4.70
2023-03-05T19:47:25.888Z,4.70
2023-03-05T19:50:27.969Z,4.60
2023-03-05T19:53:29.865Z,4.70
2023-03-05T19:56:31.489Z,4.70
2023-03-05T19:59:33.078Z,4.70
2023-03-05T20:02:34.733Z,4.60
2023-03-05T20:05:36.787Z,4.60
2023-03-05T20:08:38.615Z,4.60
2023-03-05T20:11:40.832Z,4.60
2023-03-05T20:14:42.399Z,4.50
2023-03-05T20:17:45.663Z,4.50
2023-03-05T20:20:55.708Z,4.40
2023-03-05T20:24:01.071Z,4.40
2023-03-05T20:27:02.772Z,4.40
2023-03-05T20:30:07.095Z,4.30
2023-03-05T20:33:08.728Z,4.30
2023-03-05T20:36:10.500Z,4.30
2023-03-05T20:39:12.580Z,4.30
2023-03-05T20:42:14.163Z,4.30
2023-03-05T20:45:15.788Z,4.30
2023-03-05T20:48:17.363Z,4.30
2023-03-05T20:51:25.124Z,4.30
2023-03-05T20:54:27.961Z,4.30
2023-03-05T20:57:31.015Z,4.20
2023-03-05T21:00:32.798Z,4.20
2023-03-05T21:03:34.471Z,4.20
2023-03-05T21:06:36.440Z,4.20
2023-03-05T21:09:38.037Z,4.20
2023-03-05T21:12:39.754Z,4.20
2023-03-05T21:15:41.851Z,4.20
2023-03-05T21:18:43.451Z,4.20
2023-03-05T21:21:45.695Z,4.20
2023-03-05T21:25:02.027Z,4.20
2023-03-05T21:28:12.958Z,4.30
2023-03-05T21:31:18.172Z,4.30
2023-03-05T21:34:19.793Z,4.20
2023-03-05T21:37:21.400Z,4.20
2023-03-05T21:40:23.036Z,4.20
2023-03-05T21:43:25.524Z,4.20
2023-03-05T21:46:27.152Z,4.20
2023-03-05T21:49:28.792Z,4.20
2023-03-05T21:52:30.417Z,4.20
2023-03-05T21:55:35.959Z,4.20
2023-03-05T21:58:37.563Z,4.20
2023-03-05T22:01:39.150Z,4.20
2023-03-05T22:04:40.839Z,4.20
2023-03-05T22:07:43.964Z,4.20
2023-03-05T22:10:45.569Z,4.20
2023-03-05T22:13:47.137Z,4.10
2023-03-05T22:16:53.088Z,4.10
2023-03-05T22:19:54.897Z,4.00
2023-03-05T22:22:56.451Z,4.00
2023-03-05T22:26:04.631Z,4.00
2023-03-05T22:29:11.623Z,4.00
2023-03-05T22:32:13.236Z,3.90
2023-03-05T22:35:16.089Z,3.90
2023-03-05T22:38:18.313Z,3.90
2023-03-05T22:41:21.405Z,3.90
2023-03-05T22:44:25.078Z,3.80
2023-03-05T22:47:27.285Z,3.80
2023-03-05T22:50:29.130Z,3.80
2023-03-05T22:53:31.293Z,3.80
2023-03-05T22:56:33.045Z,3.90
2023-03-05T22:59:34.649Z,3.80
2023-03-05T23:02:36.505Z,3.80
2023-03-05T23:05:39.364Z,3.80
2023-03-05T23:08:41.046Z,3.90
2023-03-05T23:11:42.731Z,3.90
2023-03-05T23:14:44.428Z,3.90
2023-03-05T23:17:46.387Z,3.90
2023-03-05T23:20:47.992Z,3.90
2023-03-05T23:23:49.557Z,3.90
2023-03-05T23:26:51.144Z,3.90
2023-03-05T23:30:16.202Z,3.90
2023-03-05T23:33:22.678Z,3.90
2023-03-05T23:36:25.098Z,3.90
2023-03-05T23:39:26.770Z,3.90
2023-03-05T23:42:28.334Z,3.90
2023-03-05T23:45:30.894Z,3.90
2023-03-05T23:48:32.538Z,3.90
2023-03-05T23:51:34.148Z,3.80
2023-03-05T23:54:35.753Z,3.80
2023-03-05T23:57:37.356Z,3.80
